createdAt,value
2022-09-13T00:02:19.664Z,7.53
2022-09-13T00:04:46.621Z,21.00
2022-09-13T00:07:13.581Z,6.93
2022-09-13T00:09:40.630Z,6.40
2022-09-13T00:12:07.679Z,7.03
2022-09-13T00:14:34.613Z,6.13
2022-09-13T00:17:01.623Z,6.80
2022-09-13T00:19:28.580Z,5.57
2022-09-13T00:21:55.505Z,7.27
2022-09-13T00:24:22.385Z,6.90
2022-09-13T00:26:49.312Z,6.33
2022-09-13T00:29:16.348Z,6.30
2022-09-13T00:31:43.373Z,6.20
2022-09-13T00:34:10.256Z,6.23
2022-09-13T00:36:37.304Z,5.50
2022-09-13T00:39:04.203Z,5.80
2022-09-13T00:41:31.239Z,5.57
2022-09-13T00:44:01.138Z,6.00
2022-09-13T00:46:45.969Z,6.53
2022-09-13T00:49:37.065Z,5.90
2022-09-13T00:52:09.835Z,5.87
2022-09-13T00:54:52.548Z,6.33
2022-09-13T00:57:21.969Z,6.33
2022-09-13T01:00:12.143Z,6.70
2022-09-13T01:02:43.501Z,6.13
2022-09-13T01:05:11.950Z,6.27
2022-09-13T01:07:39.515Z,6.30
2022-09-13T01:10:07.794Z,6.93
2022-09-13T01:13:02.815Z,6.17
2022-09-13T01:15:29.754Z,6.17
2022-09-13T01:17:57.027Z,6.30
2022-09-13T01:20:54.508Z,7.00
2022-09-13T01:23:47.803Z,6.10
2022-09-13T01:26:20.404Z,6.40
2022-09-13T01:29:22.352Z,5.90
2022-09-13T01:32:07.561Z,5.47
2022-09-13T01:35:14.593Z,6.60
2022-09-13T01:37:58.072Z,6.63
2022-09-13T01:40:39.119Z,5.83
2022-09-13T01:43:40.021Z,6.20
2022-09-13T01:46:32.295Z,6.80
2022-09-13T01:49:12.989Z,9.73
2022-09-13T01:51:58.499Z,6.87
2022-09-13T01:54:39.865Z,8.10
2022-09-13T01:57:21.866Z,7.27
2022-09-13T01:59:54.140Z,8.10
2022-09-13T02:02:33.805Z,9.60
2022-09-13T02:05:07.960Z,8.80
2022-09-13T02:07:46.826Z,9.17
2022-09-13T02:10:27.713Z,8.80
2022-09-13T02:12:58.294Z,8.63
2022-09-13T02:15:53.323Z,7.03
2022-09-13T02:18:28.815Z,9.33
2022-09-13T02:21:03.864Z,8.87
2022-09-13T02:23:39.337Z,8.50
2022-09-13T02:26:08.060Z,8.83
2022-09-13T02:28:44.365Z,8.77
2022-09-13T02:31:13.194Z,8.47
2022-09-13T02:33:47.345Z,8.10
2022-09-13T02:36:26.009Z,8.57
2022-09-13T02:39:01.114Z,9.27
2022-09-13T02:42:12.326Z,9.73
2022-09-13T02:44:49.714Z,9.40
2022-09-13T02:47:40.956Z,11.23
2022-09-13T02:50:30.131Z,10.17
2022-09-13T02:53:44.802Z,9.63
2022-09-13T02:56:34.368Z,10.23
2022-09-13T02:59:17.337Z,10.50
2022-09-13T03:02:04.698Z,11.13
2022-09-13T03:04:34.413Z,10.43
2022-09-13T03:07:04.481Z,9.70
2022-09-13T03:09:32.727Z,10.00
2022-09-13T03:13:01.322Z,10.33
2022-09-13T03:15:46.358Z,10.23
2022-09-13T03:18:32.076Z,10.93
2022-09-13T03:21:43.293Z,11.47
2022-09-13T03:24:58.823Z,12.30
2022-09-13T03:28:21.319Z,11.70
2022-09-13T03:31:01.221Z,11.00
2022-09-13T03:34:01.758Z,10.07
2022-09-13T03:36:44.705Z,12.20
2022-09-13T03:39:50.582Z,11.93
2022-09-13T03:42:48.540Z,12.47
2022-09-13T03:45:19.811Z,11.20
2022-09-13T03:47:48.846Z,10.93
2022-09-13T03:50:21.663Z,11.73
2022-09-13T03:53:01.860Z,10.70
2022-09-13T03:55:31.774Z,12.07
2022-09-13T03:57:58.683Z,12.33
2022-09-13T04:00:25.808Z,12.27
2022-09-13T04:02:52.817Z,14.63
2022-09-13T04:05:19.743Z,12.17
2022-09-13T04:07:46.690Z,14.10
2022-09-13T04:10:14.264Z,12.30
2022-09-13T04:12:41.475Z,12.00
2022-09-13T04:15:09.321Z,13.23
2022-09-13T04:17:36.363Z,13.03
2022-09-13T04:20:05.471Z,13.13
2022-09-13T04:22:33.558Z,13.27
2022-09-13T04:25:02.561Z,13.20
2022-09-13T04:27:29.864Z,12.73
2022-09-13T04:29:56.805Z,13.10
2022-09-13T04:32:23.772Z,13.70
2022-09-13T04:34:50.683Z,13.17
2022-09-13T04:37:17.829Z,12.47
2022-09-13T04:39:44.781Z,12.67
2022-09-13T04:42:11.859Z,13.63
2022-09-13T04:44:39.060Z,13.53
2022-09-13T04:47:08.126Z,13.60
2022-09-13T04:49:35.139Z,13.40
2022-09-13T04:52:02.340Z,11.77
2022-09-13T04:54:29.247Z,11.50
2022-09-13T04:56:56.172Z,12.70
2022-09-13T04:59:23.424Z,11.97
2022-09-13T05:01:50.356Z,13.83
2022-09-13T05:04:17.401Z,12.80
2022-09-13T05:06:44.311Z,13.57
2022-09-13T05:09:14.614Z,12.93
2022-09-13T05:11:42.300Z,14.07
2022-09-13T05:14:12.690Z,13.33
2022-09-13T05:16:39.907Z,14.80
2022-09-13T05:19:06.842Z,12.93
2022-09-13T05:21:33.765Z,14.70
2022-09-13T05:24:00.947Z,13.17
2022-09-13T05:26:31.349Z,13.07
2022-09-13T05:29:02.344Z,14.23
2022-09-13T05:31:36.954Z,13.57
2022-09-13T05:34:10.743Z,14.97
2022-09-13T05:36:38.312Z,14.90
2022-09-13T05:39:28.995Z,20.60
2022-09-13T05:41:53.527Z,15.37
2022-09-13T05:44:20.568Z,14.37
2022-09-13T05:46:48.653Z,15.73
2022-09-13T05:49:15.783Z,15.17
2022-09-13T05:51:43.542Z,15.03
2022-09-13T05:54:12.838Z,15.53
2022-09-13T05:56:40.268Z,16.17
2022-09-13T05:59:08.908Z,16.37
2022-09-13T06:01:36.689Z,16.87
2022-09-13T06:04:03.697Z,16.77
2022-09-13T06:06:30.604Z,18.50
2022-09-13T06:08:58.138Z,17.13
2022-09-13T06:11:26.731Z,16.00
2022-09-13T06:13:54.146Z,15.40
2022-09-13T06:16:21.790Z,17.60
2022-09-13T06:18:49.963Z,15.57
2022-09-13T06:21:22.199Z,15.10
2022-09-13T06:23:54.051Z,15.10
2022-09-13T06:26:24.951Z,14.00
2022-09-13T06:28:55.045Z,15.90
2022-09-13T06:31:25.191Z,16.10
2022-09-13T06:33:58.756Z,16.17
2022-09-13T06:36:26.489Z,16.70
2022-09-13T06:38:53.406Z,17.10
2022-09-13T06:41:23.773Z,18.23
2022-09-13T06:43:58.805Z,18.57
2022-09-13T06:46:28.871Z,17.77
2022-09-13T06:48:59.353Z,18.20
2022-09-13T06:51:27.319Z,16.87
2022-09-13T06:53:56.691Z,17.20
2022-09-13T06:56:30.802Z,16.23
2022-09-13T06:59:07.442Z,17.43
2022-09-13T07:01:40.700Z,16.07
2022-09-13T07:04:11.045Z,15.00
2022-09-13T07:06:47.662Z,16.83
2022-09-13T07:09:18.922Z,15.43
2022-09-13T07:11:47.243Z,18.33
2022-09-13T07:14:17.366Z,17.40
2022-09-13T07:16:46.091Z,16.87
2022-09-13T07:19:16.474Z,17.00
2022-09-13T07:21:44.425Z,17.97
2022-09-13T07:24:12.301Z,17.47
2022-09-13T07:26:39.397Z,17.77
2022-09-13T07:29:09.292Z,17.13
2022-09-13T07:31:39.854Z,18.67
2022-09-13T07:34:12.994Z,17.87
2022-09-13T07:36:39.967Z,16.80
2022-09-13T07:39:09.871Z,16.57
2022-09-13T07:41:39.711Z,17.50
2022-09-13T07:44:07.981Z,16.90
2022-09-13T07:46:39.904Z,17.10
2022-09-13T07:49:07.904Z,18.37
2022-09-13T07:51:39.585Z,19.13
2022-09-13T07:54:13.175Z,18.40
2022-09-13T07:56:41.929Z,17.57
2022-09-13T07:59:14.191Z,20.00
2022-09-13T08:01:47.559Z,19.93
2022-09-13T08:04:18.847Z,18.53
2022-09-13T08:06:46.898Z,16.23
2022-09-13T08:09:15.565Z,17.83
2022-09-13T08:11:49.006Z,14.93
2022-09-13T08:14:18.155Z,17.53
2022-09-13T08:16:45.217Z,18.07
2022-09-13T08:19:16.100Z,17.57
2022-09-13T08:21:44.326Z,18.47
2022-09-13T08:24:21.253Z,17.37
2022-09-13T08:26:48.939Z,18.43
2022-09-13T08:29:16.716Z,18.87
2022-09-13T08:31:44.229Z,17.83
2022-09-13T08:34:14.549Z,20.63
2022-09-13T08:36:42.114Z,18.60
2022-09-13T08:39:10.424Z,18.80
2022-09-13T08:41:40.304Z,18.90
2022-09-13T08:44:33.494Z,22.60
2022-09-13T08:47:22.094Z,21.53
2022-09-13T08:49:53.101Z,26.20
2022-09-13T08:53:05.805Z,21.50
2022-09-13T08:55:43.708Z,26.70
2022-09-13T08:58:56.741Z,26.30
2022-09-13T09:01:36.265Z,25.43
2022-09-13T09:04:15.092Z,28.23
2022-09-13T09:06:43.298Z,25.33
2022-09-13T09:09:21.997Z,26.17
2022-09-13T09:12:17.232Z,23.73
2022-09-13T09:14:57.261Z,29.47
2022-09-13T09:17:31.071Z,27.40
2022-09-13T09:20:18.943Z,26.70
2022-09-13T09:22:47.818Z,23.97
2022-09-13T09:25:14.747Z,22.00
2022-09-13T09:27:41.754Z,21.53
2022-09-13T09:30:16.656Z,21.07
2022-09-13T09:33:01.586Z,20.70
2022-09-13T09:36:08.938Z,23.40
2022-09-13T09:38:43.809Z,19.30
2022-09-13T09:41:29.058Z,20.70
2022-09-13T09:44:22.371Z,23.23
2022-09-13T09:47:25.940Z,24.53
2022-09-13T09:50:16.473Z,25.37
2022-09-13T09:53:09.846Z,20.53
2022-09-13T09:55:53.317Z,19.40
2022-09-13T09:58:36.440Z,19.93
2022-09-13T10:01:04.013Z,18.60
2022-09-13T10:03:34.026Z,17.07
2022-09-13T10:06:14.547Z,15.40
2022-09-13T10:08:44.237Z,15.97
2022-09-13T10:11:12.141Z,15.30
2022-09-13T10:13:59.440Z,14.00
2022-09-13T10:16:29.816Z,17.23
2022-09-13T10:19:26.693Z,20.73
2022-09-13T10:22:06.262Z,20.10
2022-09-13T10:24:33.331Z,17.97
2022-09-13T10:27:00.909Z,20.80
2022-09-13T10:29:29.171Z,21.93
2022-09-13T10:32:03.640Z,19.33
2022-09-13T10:34:34.601Z,15.27
2022-09-13T10:37:11.328Z,15.00
2022-09-13T10:40:00.360Z,16.30
2022-09-13T10:42:29.546Z,14.87
2022-09-13T10:45:05.010Z,12.80
2022-09-13T10:47:39.153Z,11.67
2022-09-13T10:50:31.091Z,12.37
2022-09-13T10:53:00.029Z,12.27
2022-09-13T10:55:43.952Z,10.37
2022-09-13T10:58:10.902Z,8.30
2022-09-13T11:01:16.948Z,8.90
2022-09-13T11:04:05.011Z,8.57
2022-09-13T11:06:53.932Z,6.97
2022-09-13T11:09:46.219Z,8.57
2022-09-13T11:12:28.416Z,9.23
2022-09-13T11:15:21.616Z,5.47
2022-09-13T11:17:58.428Z,5.83
2022-09-13T11:20:45.556Z,4.07
2022-09-13T11:23:51.276Z,4.23
2022-09-13T11:26:38.448Z,3.53
2022-09-13T11:29:29.992Z,3.80
2022-09-13T11:32:53.711Z,3.00
2022-09-13T11:36:00.939Z,4.03
2022-09-13T11:38:33.530Z,5.33
2022-09-13T11:41:22.864Z,4.63
2022-09-13T11:44:17.284Z,4.00
2022-09-13T11:47:11.550Z,3.50
2022-09-13T11:50:15.918Z,4.43
2022-09-13T11:53:22.979Z,3.73
2022-09-13T11:56:05.178Z,3.40
2022-09-13T11:59:01.146Z,2.53
2022-09-13T12:01:42.432Z,4.57
2022-09-13T12:04:27.761Z,2.27
2022-09-13T12:07:12.713Z,2.60
2022-09-13T12:09:55.214Z,2.03
2022-09-13T12:12:26.430Z,3.07
2022-09-13T12:15:02.210Z,1.77
2022-09-13T12:17:48.159Z,1.83
2022-09-13T12:20:33.444Z,2.30
2022-09-13T12:23:05.288Z,2.40
2022-09-13T12:25:46.481Z,2.63
2022-09-13T12:28:29.366Z,2.00
2022-09-13T12:31:02.929Z,3.13
2022-09-13T12:33:30.294Z,5.17
2022-09-13T12:36:12.385Z,1.53
2022-09-13T12:39:06.955Z,1.67
2022-09-13T12:42:02.661Z,1.47
2022-09-13T12:44:43.362Z,2.60
2022-09-13T12:48:06.645Z,1.43
2022-09-13T12:51:11.329Z,2.97
2022-09-13T12:53:57.382Z,1.90
2022-09-13T12:57:21.731Z,1.77
2022-09-13T13:00:11.565Z,1.60
2022-09-13T13:02:41.284Z,1.90
2022-09-13T13:05:54.257Z,1.33
2022-09-13T13:08:21.164Z,3.43
2022-09-13T13:11:26.211Z,1.17
2022-09-13T13:14:09.243Z,1.47
2022-09-13T13:16:48.201Z,1.73
2022-09-13T13:19:34.037Z,1.23
2022-09-13T13:22:44.857Z,4.33
2022-09-13T13:25:38.919Z,3.23
2022-09-13T13:28:43.145Z,4.50
2022-09-13T13:31:25.247Z,3.37
2022-09-13T13:34:13.921Z,5.43
2022-09-13T13:36:40.985Z,0.97
2022-09-13T13:39:33.767Z,5.50
2022-09-13T13:42:27.630Z,1.63
2022-09-13T13:44:54.384Z,1.27
2022-09-13T13:47:21.147Z,1.60
2022-09-13T13:50:07.214Z,0.97
2022-09-13T13:52:40.752Z,1.43
2022-09-13T13:55:45.751Z,1.60
2022-09-13T13:58:38.002Z,1.37
2022-09-13T14:01:06.455Z,1.90
2022-09-13T14:04:09.986Z,2.40
2022-09-13T14:07:06.122Z,2.87
2022-09-13T14:10:01.258Z,2.90
2022-09-13T14:12:54.302Z,1.03
2022-09-13T14:15:51.904Z,1.63
2022-09-13T14:18:39.377Z,2.27
2022-09-13T14:21:27.460Z,2.20
2022-09-13T14:24:24.634Z,0.80
2022-09-13T14:26:59.018Z,1.13
2022-09-13T14:29:26.575Z,5.53
2022-09-13T14:32:04.304Z,2.27
2022-09-13T14:34:36.300Z,1.10
2022-09-13T14:37:16.516Z,3.57
2022-09-13T14:40:18.839Z,1.17
2022-09-13T14:42:49.048Z,1.43
2022-09-13T14:45:31.658Z,4.27
2022-09-13T14:48:15.631Z,0.90
2022-09-13T14:50:55.295Z,0.60
2022-09-13T14:53:25.712Z,1.33
2022-09-13T14:56:13.192Z,0.60
2022-09-13T14:58:58.595Z,1.83
2022-09-13T15:01:33.591Z,0.77
2022-09-13T15:04:04.560Z,1.20
2022-09-13T15:06:39.046Z,1.50
2022-09-13T15:09:11.726Z,2.10
2022-09-13T15:11:52.549Z,2.53
2022-09-13T15:14:35.054Z,3.23
2022-09-13T15:17:10.183Z,2.90
2022-09-13T15:19:51.388Z,1.43
2022-09-13T15:22:24.735Z,2.20
2022-09-13T15:24:58.159Z,2.90
2022-09-13T15:27:31.514Z,1.87
2022-09-13T15:30:05.875Z,2.20
2022-09-13T15:32:44.163Z,5.50
2022-09-13T15:35:29.371Z,1.90
2022-09-13T15:38:19.743Z,2.00
2022-09-13T15:41:00.503Z,2.10
2022-09-13T15:43:28.266Z,1.27
2022-09-13T15:45:58.371Z,1.47
2022-09-13T15:48:33.045Z,0.97
2022-09-13T15:51:11.264Z,1.60
2022-09-13T15:53:44.593Z,1.37
2022-09-13T15:56:19.396Z,3.90
2022-09-13T15:58:47.205Z,1.10
2022-09-13T16:01:16.197Z,3.27
2022-09-13T16:03:43.295Z,2.70
2022-09-13T16:06:10.988Z,1.90
2022-09-13T16:08:39.069Z,3.60
2022-09-13T16:11:06.942Z,2.93
2022-09-13T16:13:34.653Z,6.13
2022-09-13T16:16:01.964Z,1.20
2022-09-13T16:18:28.962Z,0.90
2022-09-13T16:20:55.941Z,1.83
2022-09-13T16:23:23.058Z,1.53
2022-09-13T16:25:56.340Z,2.70
2022-09-13T16:28:25.920Z,1.50
2022-09-13T16:30:53.911Z,1.67
2022-09-13T16:33:21.193Z,3.13
2022-09-13T16:35:48.391Z,2.77
2022-09-13T16:38:15.735Z,1.47
2022-09-13T16:40:45.060Z,4.83
2022-09-13T16:43:14.687Z,2.83
2022-09-13T16:45:42.964Z,3.50
2022-09-13T16:48:09.895Z,1.63
2022-09-13T16:50:40.902Z,1.70
2022-09-13T16:53:09.319Z,4.80
2022-09-13T16:55:36.448Z,3.27
2022-09-13T16:58:03.573Z,6.43
2022-09-13T17:00:30.549Z,2.33
2022-09-13T17:02:57.660Z,1.77
2022-09-13T17:05:25.811Z,2.77
2022-09-13T17:07:53.179Z,2.90
2022-09-13T17:10:21.720Z,3.43
2022-09-13T17:12:49.214Z,3.70
2022-09-13T17:15:16.572Z,4.17
2022-09-13T17:17:44.020Z,2.90
2022-09-13T17:20:13.239Z,7.53
2022-09-13T17:22:40.529Z,1.23
2022-09-13T17:25:08.221Z,5.00
2022-09-13T17:27:35.993Z,1.27
2022-09-13T17:30:04.970Z,1.90
2022-09-13T17:32:31.971Z,2.23
2022-09-13T17:34:59.100Z,1.93
2022-09-13T17:37:26.050Z,2.20
2022-09-13T17:39:52.968Z,1.20
2022-09-13T17:42:23.109Z,1.27
2022-09-13T17:44:50.687Z,2.50
2022-09-13T17:47:17.564Z,3.13
2022-09-13T17:49:45.517Z,1.20
2022-09-13T17:52:12.540Z,1.20
2022-09-13T17:54:39.555Z,2.43
2022-09-13T17:57:06.708Z,3.20
2022-09-13T17:59:34.275Z,3.63
2022-09-13T18:02:01.408Z,1.93
2022-09-13T18:04:28.450Z,2.93
2022-09-13T18:06:55.964Z,3.60
2022-09-13T18:09:24.232Z,3.63
2022-09-13T18:11:51.562Z,5.00
2022-09-13T18:14:19.603Z,2.93
2022-09-13T18:16:49.206Z,3.57
2022-09-13T18:19:16.185Z,6.20
2022-09-13T18:21:43.536Z,2.77
2022-09-13T18:24:10.544Z,7.83
2022-09-13T18:26:38.003Z,2.40
2022-09-13T18:29:10.405Z,3.33
2022-09-13T18:31:38.326Z,4.60
2022-09-13T18:34:10.372Z,2.43
2022-09-13T18:36:37.921Z,2.63
2022-09-13T18:39:06.980Z,3.53
2022-09-13T18:41:36.909Z,5.77
2022-09-13T18:44:07.174Z,3.50
2022-09-13T18:46:35.529Z,5.20
2022-09-13T18:49:04.758Z,3.23
2022-09-13T18:51:44.386Z,7.70
2022-09-13T18:54:16.002Z,3.73
2022-09-13T18:56:46.210Z,6.57
2022-09-13T18:59:13.635Z,2.70
2022-09-13T19:01:42.846Z,2.70
2022-09-13T19:04:20.177Z,4.87
2022-09-13T19:06:53.422Z,2.30
2022-09-13T19:09:20.941Z,5.70
2022-09-13T19:11:51.840Z,3.30
2022-09-13T19:14:25.395Z,7.67
2022-09-13T19:16:55.750Z,4.63
2022-09-13T19:19:23.826Z,4.43
2022-09-13T19:21:50.853Z,6.87
2022-09-13T19:24:19.479Z,4.67
2022-09-13T19:26:50.736Z,7.03
2022-09-13T19:29:21.209Z,5.20
2022-09-13T19:31:49.451Z,9.20
2022-09-13T19:34:20.035Z,6.10
2022-09-13T19:36:49.502Z,8.07
2022-09-13T19:39:16.581Z,8.20
2022-09-13T19:41:43.903Z,3.43
2022-09-13T19:44:13.019Z,4.20
2022-09-13T19:46:42.088Z,1.83
2022-09-13T19:49:14.168Z,6.93
2022-09-13T19:51:45.465Z,6.73
2022-09-13T19:54:18.047Z,4.30
2022-09-13T19:56:45.092Z,5.00
2022-09-13T19:59:15.692Z,5.10
2022-09-13T20:01:45.021Z,4.77
2022-09-13T20:04:15.607Z,3.77
2022-09-13T20:06:46.989Z,4.80
2022-09-13T20:09:17.270Z,9.10
2022-09-13T20:11:45.513Z,6.50
2022-09-13T20:14:14.962Z,6.00
2022-09-13T20:16:42.922Z,7.10
2022-09-13T20:19:39.443Z,4.30
2022-09-13T20:22:07.424Z,3.50
2022-09-13T20:24:34.390Z,4.03
2022-09-13T20:27:01.289Z,4.87
2022-09-13T20:29:28.165Z,3.43
2022-09-13T20:31:55.650Z,4.57
2022-09-13T20:34:22.720Z,3.13
2022-09-13T20:36:50.058Z,2.60
2022-09-13T20:39:17.258Z,3.97
2022-09-13T20:41:45.015Z,4.47
2022-09-13T20:44:12.211Z,3.80
2022-09-13T20:46:40.510Z,4.00
2022-09-13T20:49:09.086Z,7.47
2022-09-13T20:51:37.180Z,6.03
2022-09-13T20:54:05.082Z,2.67
2022-09-13T20:56:34.234Z,5.90
2022-09-13T20:59:01.949Z,4.07
2022-09-13T21:01:31.546Z,5.10
2022-09-13T21:04:00.516Z,4.13
2022-09-13T21:06:30.429Z,4.77
2022-09-13T21:09:01.454Z,5.43
2022-09-13T21:11:35.336Z,3.67
2022-09-13T21:14:09.741Z,4.47
2022-09-13T21:16:40.660Z,7.63
2022-09-13T21:19:09.092Z,6.90
2022-09-13T21:21:39.337Z,4.43
2022-09-13T21:24:09.869Z,3.37
2022-09-13T21:26:42.688Z,5.10
2022-09-13T21:29:11.680Z,2.70
2022-09-13T21:31:39.636Z,6.13
2022-09-13T21:34:15.838Z,5.60
2022-09-13T21:36:44.345Z,2.60
2022-09-13T21:39:12.496Z,3.43
2022-09-13T21:41:39.970Z,4.77
2022-09-13T21:44:07.277Z,4.73
2022-09-13T21:46:36.759Z,4.17
2022-09-13T21:49:07.078Z,7.47
2022-09-13T21:51:40.929Z,4.90
2022-09-13T21:54:11.920Z,6.30
2022-09-13T21:56:42.253Z,5.17
2022-09-13T21:59:16.712Z,3.70
2022-09-13T22:01:47.270Z,5.03
2022-09-13T22:04:22.390Z,4.50
2022-09-13T22:06:53.787Z,5.50
2022-09-13T22:09:24.670Z,8.00
2022-09-13T22:11:51.905Z,5.57
2022-09-13T22:14:22.205Z,5.47
2022-09-13T22:16:52.502Z,5.23
2022-09-13T22:19:23.872Z,4.50
2022-09-13T22:21:55.568Z,7.63
2022-09-13T22:24:25.658Z,3.87
2022-09-13T22:26:56.623Z,6.60
2022-09-13T22:29:23.957Z,2.83
2022-09-13T22:31:52.266Z,6.20
2022-09-13T22:34:23.640Z,3.23
2022-09-13T22:36:50.642Z,6.10
2022-09-13T22:39:18.050Z,2.80
2022-09-13T22:41:45.450Z,6.07
2022-09-13T22:44:13.169Z,4.37
2022-09-13T22:46:43.809Z,6.40
2022-09-13T22:49:18.235Z,3.80
2022-09-13T22:51:46.963Z,5.43
2022-09-13T22:54:15.892Z,4.17
2022-09-13T22:56:43.591Z,3.20
2022-09-13T22:59:17.049Z,4.60
2022-09-13T23:01:44.637Z,6.57
2022-09-13T23:04:12.326Z,4.00
2022-09-13T23:06:39.815Z,3.23
2022-09-13T23:09:08.628Z,5.43
2022-09-13T23:11:39.428Z,5.20
2022-09-13T23:14:13.600Z,3.87
2022-09-13T23:16:46.946Z,6.00
2022-09-13T23:19:14.777Z,6.60
2022-09-13T23:21:43.082Z,5.60
2022-09-13T23:24:17.142Z,3.10
2022-09-13T23:26:45.224Z,6.50
2022-09-13T23:29:16.166Z,3.10
2022-09-13T23:31:43.965Z,4.30
2022-09-13T23:34:12.453Z,3.10
2022-09-13T23:36:41.467Z,6.60
2022-09-13T23:39:17.725Z,4.77
2022-09-13T23:41:47.201Z,3.10
2022-09-13T23:44:15.133Z,5.20
2022-09-13T23:46:42.679Z,6.17
2022-09-13T23:49:09.755Z,3.00
2022-09-13T23:51:36.918Z,5.07
2022-09-13T23:54:03.927Z,4.03
2022-09-13T23:56:32.113Z,5.30
2022-09-13T23:59:00.851Z,5.70
